createdAt,value
2023-01-09T00:01:26.168Z,6.00
2023-01-09T00:03:54.010Z,6.00
2023-01-09T00:06:22.065Z,6.00
2023-01-09T00:08:50.023Z,6.00
2023-01-09T00:11:18.076Z,5.90
2023-01-09T00:13:48.212Z,5.90
2023-01-09T00:16:16.104Z,5.90
2023-01-09T00:18:43.919Z,5.90
2023-01-09T00:21:13.379Z,5.90
2023-01-09T00:23:41.403Z,5.90
2023-01-09T00:26:12.821Z,5.90
2023-01-09T00:28:43.470Z,5.90
2023-01-09T00:31:13.600Z,5.90
2023-01-09T00:33:44.039Z,5.90
2023-01-09T00:36:12.126Z,5.90
2023-01-09T00:38:40.997Z,5.90
2023-01-09T00:41:13.089Z,5.90
2023-01-09T00:43:46.278Z,5.90
2023-01-09T00:46:21.423Z,5.90
2023-01-09T00:48:50.351Z,5.90
2023-01-09T00:51:20.603Z,5.90
2023-01-09T00:53:50.561Z,5.80
2023-01-09T00:56:20.892Z,5.90
2023-01-09T00:58:49.495Z,5.90
2023-01-09T01:01:18.782Z,5.90
2023-01-09T01:03:49.385Z,5.90
2023-01-09T01:06:34.911Z,5.90
2023-01-09T01:09:02.669Z,5.90
2023-01-09T01:11:32.264Z,5.90
2023-01-09T01:14:00.525Z,6.00
2023-01-09T01:16:29.679Z,5.90
2023-01-09T01:18:57.538Z,5.90
2023-01-09T01:21:25.463Z,5.90
2023-01-09T01:23:53.264Z,5.90
2023-01-09T01:26:21.035Z,5.90
2023-01-09T01:28:48.815Z,5.90
2023-01-09T01:31:18.414Z,5.90
2023-01-09T01:33:47.830Z,5.90
2023-01-09T01:36:17.669Z,5.90
2023-01-09T01:38:47.037Z,5.90
2023-01-09T01:41:29.198Z,5.90
2023-01-09T01:43:59.233Z,5.90
2023-01-09T01:46:27.790Z,5.90
2023-01-09T01:49:02.147Z,5.90
2023-01-09T01:51:33.563Z,5.90
2023-01-09T01:54:06.869Z,6.00
2023-01-09T01:56:45.437Z,6.00
2023-01-09T01:59:22.452Z,6.00
2023-01-09T02:01:53.155Z,6.10
2023-01-09T02:04:22.373Z,6.10
2023-01-09T02:06:54.133Z,6.20
2023-01-09T02:09:25.150Z,6.20
2023-01-09T02:11:57.508Z,6.30
2023-01-09T02:14:29.012Z,6.30
2023-01-09T02:17:08.467Z,6.40
2023-01-09T02:20:20.223Z,6.40
2023-01-09T02:23:09.133Z,6.40
2023-01-09T02:26:00.322Z,6.50
2023-01-09T02:28:53.135Z,6.50
2023-01-09T02:31:29.417Z,6.50
2023-01-09T02:34:05.131Z,6.60
2023-01-09T02:36:40.553Z,6.60
2023-01-09T02:39:22.407Z,6.60
2023-01-09T02:41:56.463Z,6.60
2023-01-09T02:44:26.030Z,6.70
2023-01-09T02:47:06.181Z,6.70
2023-01-09T02:49:35.914Z,6.70
2023-01-09T02:52:16.403Z,6.70
2023-01-09T02:54:55.700Z,6.80
2023-01-09T02:57:42.657Z,6.80
2023-01-09T03:00:19.631Z,6.80
2023-01-09T03:02:54.496Z,6.80
2023-01-09T03:05:26.844Z,6.90
2023-01-09T03:08:01.378Z,6.90
2023-01-09T03:10:37.213Z,6.90
2023-01-09T03:13:09.534Z,6.90
2023-01-09T03:15:40.761Z,7.00
2023-01-09T03:18:12.759Z,7.00
2023-01-09T03:20:42.432Z,7.00
2023-01-09T03:23:10.507Z,7.00
2023-01-09T03:25:38.427Z,7.10
2023-01-09T03:28:08.087Z,7.10
2023-01-09T03:30:37.627Z,7.10
2023-01-09T03:33:05.560Z,7.10
2023-01-09T03:35:38.346Z,7.10
2023-01-09T03:38:07.966Z,7.10
2023-01-09T03:40:35.918Z,7.10
2023-01-09T03:43:03.739Z,7.10
2023-01-09T03:45:31.535Z,7.10
2023-01-09T03:47:59.480Z,7.10
2023-01-09T03:50:27.442Z,7.10
2023-01-09T03:52:56.631Z,7.10
2023-01-09T03:55:24.409Z,7.20
2023-01-09T03:57:53.141Z,7.10
2023-01-09T04:00:21.591Z,7.10
2023-01-09T04:02:49.536Z,7.20
2023-01-09T04:05:17.694Z,7.20
2023-01-09T04:07:46.001Z,7.20
2023-01-09T04:10:15.151Z,7.20
2023-01-09T04:12:42.990Z,7.20
2023-01-09T04:15:11.729Z,7.20
2023-01-09T04:17:39.707Z,7.20
2023-01-09T04:20:08.729Z,7.20
2023-01-09T04:22:36.987Z,7.20
2023-01-09T04:25:05.739Z,7.20
2023-01-09T04:27:35.215Z,7.20
2023-01-09T04:30:03.057Z,7.20
2023-01-09T04:32:30.826Z,7.20
2023-01-09T04:34:58.689Z,7.20
2023-01-09T04:37:26.452Z,7.20
2023-01-09T04:39:56.281Z,7.20
2023-01-09T04:42:24.300Z,7.20
2023-01-09T04:44:54.358Z,7.20
2023-01-09T04:47:23.661Z,7.20
2023-01-09T04:49:52.185Z,7.20
2023-01-09T04:52:20.009Z,7.20
2023-01-09T04:54:47.874Z,7.20
2023-01-09T04:57:15.689Z,7.20
2023-01-09T04:59:43.693Z,7.10
2023-01-09T05:02:12.991Z,7.20
2023-01-09T05:04:44.374Z,7.20
2023-01-09T05:07:14.401Z,7.20
2023-01-09T05:09:43.109Z,7.20
2023-01-09T05:12:13.487Z,7.10
2023-01-09T05:14:41.220Z,7.10
2023-01-09T05:17:10.224Z,7.10
2023-01-09T05:19:39.375Z,7.10
2023-01-09T05:22:07.465Z,7.10
2023-01-09T05:24:36.968Z,7.20
2023-01-09T05:27:05.057Z,7.20
2023-01-09T05:29:50.622Z,7.20
2023-01-09T05:32:20.877Z,7.10
2023-01-09T05:35:12.151Z,7.20
2023-01-09T05:37:39.999Z,7.20
2023-01-09T05:40:24.857Z,7.10
2023-01-09T05:42:57.065Z,7.10
2023-01-09T05:45:37.213Z,7.10
2023-01-09T05:48:18.772Z,7.10
2023-01-09T05:50:55.215Z,7.10
2023-01-09T05:53:24.262Z,7.10
2023-01-09T05:56:21.502Z,7.10
2023-01-09T05:58:47.133Z,7.10
2023-01-09T06:01:16.938Z,7.10
2023-01-09T06:03:44.817Z,7.10
2023-01-09T06:06:15.183Z,7.10
2023-01-09T06:09:04.070Z,7.10
2023-01-09T06:11:38.465Z,7.10
2023-01-09T06:14:20.236Z,7.10
2023-01-09T06:16:51.698Z,7.10
2023-01-09T06:19:21.466Z,7.10
2023-01-09T06:21:50.697Z,7.10
2023-01-09T06:24:28.775Z,7.10
2023-01-09T06:26:56.761Z,7.10
2023-01-09T06:29:24.745Z,7.10
2023-01-09T06:31:52.511Z,7.10
2023-01-09T06:34:20.464Z,7.10
2023-01-09T06:36:48.260Z,7.10
2023-01-09T06:39:17.442Z,7.10
2023-01-09T06:41:48.402Z,7.10
2023-01-09T06:44:16.495Z,7.10
2023-01-09T06:46:45.667Z,7.10
2023-01-09T06:49:13.824Z,7.10
2023-01-09T06:51:41.592Z,7.10
2023-01-09T06:54:09.400Z,7.00
2023-01-09T06:56:38.744Z,7.00
2023-01-09T06:59:06.736Z,7.00
2023-01-09T07:01:35.945Z,7.00
2023-01-09T07:04:05.331Z,6.90
2023-01-09T07:06:33.347Z,6.90
2023-01-09T07:09:02.487Z,6.90
2023-01-09T07:11:39.422Z,6.90
2023-01-09T07:14:12.620Z,6.80
2023-01-09T07:16:40.409Z,6.80
2023-01-09T07:19:08.212Z,6.80
2023-01-09T07:21:36.003Z,6.70
2023-01-09T07:24:03.827Z,6.70
2023-01-09T07:26:36.092Z,6.70
2023-01-09T07:29:04.032Z,6.70
2023-01-09T07:31:36.294Z,6.70
2023-01-09T07:34:04.111Z,6.70
2023-01-09T07:36:31.882Z,6.60
2023-01-09T07:38:59.748Z,6.60
2023-01-09T07:41:27.498Z,6.60
2023-01-09T07:44:01.319Z,6.60
2023-01-09T07:46:30.917Z,6.60
2023-01-09T07:49:07.223Z,6.60
2023-01-09T07:51:43.296Z,6.60
2023-01-09T07:54:11.445Z,6.70
2023-01-09T07:56:49.332Z,6.70
2023-01-09T08:02:16.129Z,6.70
2023-01-09T08:05:02.419Z,6.70
2023-01-09T08:07:44.310Z,6.80
2023-01-09T08:10:13.191Z,6.70
2023-01-09T08:12:48.221Z,6.70
2023-01-09T08:15:40.989Z,6.70
2023-01-09T08:18:07.448Z,6.70
2023-01-09T08:20:36.571Z,6.60
2023-01-09T08:23:04.514Z,6.60
2023-01-09T08:25:34.354Z,6.60
2023-01-09T08:28:02.445Z,6.60
2023-01-09T08:30:30.205Z,6.60
2023-01-09T08:32:58.072Z,6.50
2023-01-09T08:35:25.953Z,6.50
2023-01-09T08:38:05.921Z,6.60
2023-01-09T08:40:47.939Z,6.50
2023-01-09T08:43:30.023Z,6.50
2023-01-09T08:46:15.540Z,6.50
2023-01-09T08:48:43.694Z,6.50
2023-01-09T08:51:11.763Z,6.40
2023-01-09T08:54:22.454Z,6.40
2023-01-09T08:56:50.592Z,6.40
2023-01-09T08:59:18.723Z,6.40
2023-01-09T09:01:46.583Z,6.40
2023-01-09T09:04:14.566Z,6.40
2023-01-09T09:06:42.449Z,6.30
2023-01-09T09:09:14.919Z,6.40
2023-01-09T09:12:07.253Z,6.40
2023-01-09T09:15:02.370Z,6.30
2023-01-09T09:17:40.548Z,6.30
2023-01-09T09:20:10.270Z,6.30
2023-01-09T09:22:40.198Z,6.40
2023-01-09T09:26:02.181Z,6.40
2023-01-09T09:29:10.365Z,6.50
2023-01-09T09:31:39.224Z,6.60
2023-01-09T09:34:08.264Z,6.60
2023-01-09T09:36:36.085Z,6.70
2023-01-09T09:39:07.132Z,6.70
2023-01-09T09:42:06.565Z,6.80
2023-01-09T09:44:55.560Z,6.80
2023-01-09T09:47:41.593Z,6.80
2023-01-09T09:50:36.106Z,6.90
2023-01-09T09:53:10.304Z,6.90
2023-01-09T09:55:41.043Z,7.00
2023-01-09T09:58:21.629Z,7.00
2023-01-09T10:00:51.125Z,7.00
2023-01-09T10:03:34.352Z,7.00
2023-01-09T10:06:06.758Z,7.00
2023-01-09T10:08:43.321Z,7.10
2023-01-09T10:11:18.643Z,7.10
2023-01-09T10:14:08.482Z,7.10
2023-01-09T10:17:00.169Z,7.10
2023-01-09T10:19:49.091Z,7.10
2023-01-09T10:22:26.076Z,7.10
2023-01-09T10:25:13.168Z,7.10
2023-01-09T10:27:57.303Z,7.10
2023-01-09T10:30:38.599Z,7.10
2023-01-09T10:33:19.071Z,7.20
2023-01-09T10:36:41.645Z,7.20
2023-01-09T10:39:15.618Z,7.20
2023-01-09T10:42:02.924Z,7.30
2023-01-09T10:44:38.429Z,7.30
2023-01-09T10:47:16.461Z,7.40
2023-01-09T10:49:46.148Z,7.40
2023-01-09T10:52:18.241Z,7.40
2023-01-09T10:54:53.569Z,7.50
2023-01-09T10:57:34.982Z,7.50
2023-01-09T11:00:02.954Z,7.60
2023-01-09T11:02:35.352Z,7.60
2023-01-09T11:05:03.534Z,7.60
2023-01-09T11:07:35.727Z,7.50
2023-01-09T11:10:09.548Z,7.50
2023-01-09T11:12:39.806Z,7.50
2023-01-09T11:15:31.894Z,7.60
2023-01-09T11:18:20.599Z,7.60
2023-01-09T11:20:49.022Z,7.70
2023-01-09T11:23:29.417Z,7.70
2023-01-09T11:26:02.439Z,7.70
2023-01-09T11:28:32.184Z,7.70
2023-01-09T11:31:01.518Z,7.70
2023-01-09T11:33:32.482Z,7.70
2023-01-09T11:36:04.233Z,7.70
2023-01-09T11:38:34.482Z,7.70
2023-01-09T11:41:08.349Z,7.70
2023-01-09T11:43:45.449Z,7.70
2023-01-09T11:46:38.567Z,7.70
2023-01-09T11:49:30.497Z,7.70
2023-01-09T11:52:17.199Z,7.80
2023-01-09T11:54:50.483Z,7.80
2023-01-09T11:57:21.896Z,7.80
2023-01-09T11:59:50.020Z,7.80
2023-01-09T12:02:55.577Z,7.90
2023-01-09T12:05:35.749Z,7.90
2023-01-09T12:08:18.620Z,7.90
2023-01-09T12:11:07.992Z,7.90
2023-01-09T12:13:52.277Z,7.90
2023-01-09T12:16:32.643Z,7.90
2023-01-09T12:19:32.536Z,8.00
2023-01-09T12:22:08.955Z,8.00
2023-01-09T12:24:57.405Z,8.00
2023-01-09T12:27:38.553Z,7.90
2023-01-09T12:30:24.633Z,7.90
2023-01-09T12:33:05.076Z,7.90
2023-01-09T12:35:54.311Z,7.90
2023-01-09T12:38:42.189Z,7.90
2023-01-09T12:41:34.225Z,7.90
2023-01-09T12:44:24.287Z,8.00
2023-01-09T12:47:09.222Z,8.00
2023-01-09T12:49:40.878Z,7.90
2023-01-09T12:52:13.283Z,7.90
2023-01-09T12:54:51.011Z,7.90
2023-01-09T12:57:24.746Z,7.90
2023-01-09T12:59:56.694Z,7.90
2023-01-09T13:02:30.629Z,7.90
2023-01-09T13:05:01.790Z,7.90
2023-01-09T13:07:33.609Z,7.90
2023-01-09T13:10:07.627Z,7.90
2023-01-09T13:12:44.706Z,8.00
2023-01-09T13:15:26.784Z,8.00
2023-01-09T13:17:58.549Z,8.00
2023-01-09T13:20:33.620Z,8.00
2023-01-09T13:23:04.499Z,7.90
2023-01-09T13:25:51.708Z,7.90
2023-01-09T13:28:27.279Z,7.90
2023-01-09T13:31:32.928Z,7.80
2023-01-09T13:34:02.892Z,7.80
2023-01-09T13:36:34.113Z,7.80
2023-01-09T13:39:03.363Z,7.70
2023-01-09T13:41:51.608Z,7.70
2023-01-09T13:44:24.721Z,7.70
2023-01-09T13:46:55.989Z,7.60
2023-01-09T13:50:00.120Z,7.60
2023-01-09T13:52:36.573Z,7.60
2023-01-09T13:55:24.894Z,7.60
2023-01-09T13:58:23.757Z,7.60
2023-01-09T14:00:56.891Z,7.60
2023-01-09T14:03:33.541Z,7.60
2023-01-09T14:06:17.282Z,7.50
2023-01-09T14:08:47.477Z,7.50
2023-01-09T14:11:25.832Z,7.50
2023-01-09T14:14:03.582Z,7.50
2023-01-09T14:16:32.715Z,7.50
2023-01-09T14:19:09.967Z,7.50
2023-01-09T14:21:46.787Z,7.50
2023-01-09T14:24:24.329Z,7.50
2023-01-09T14:26:56.640Z,7.50
2023-01-09T14:29:47.456Z,7.50
2023-01-09T14:32:46.871Z,7.50
2023-01-09T14:35:27.879Z,7.50
2023-01-09T14:38:17.963Z,7.50
2023-01-09T14:40:49.895Z,7.50
2023-01-09T14:43:29.354Z,7.50
2023-01-09T14:46:46.830Z,7.50
2023-01-09T14:49:31.455Z,7.50
2023-01-09T14:52:46.123Z,7.50
2023-01-09T14:55:25.690Z,7.40
2023-01-09T14:59:03.873Z,7.40
2023-01-09T15:02:22.934Z,7.40
2023-01-09T15:04:56.437Z,7.40
2023-01-09T15:07:31.136Z,7.40
2023-01-09T15:10:02.171Z,7.30
2023-01-09T15:12:32.035Z,7.30
2023-01-09T15:15:03.246Z,7.30
2023-01-09T15:17:39.550Z,7.30
2023-01-09T15:20:18.851Z,7.30
2023-01-09T15:23:00.635Z,7.30
2023-01-09T15:25:38.882Z,7.20
2023-01-09T15:28:33.902Z,7.30
2023-01-09T15:31:30.819Z,7.20
2023-01-09T15:34:08.253Z,7.20
2023-01-09T15:36:49.419Z,7.20
2023-01-09T15:39:39.236Z,7.20
2023-01-09T15:42:47.979Z,7.20
2023-01-09T15:49:33.801Z,7.10
2023-01-09T15:52:17.066Z,7.10
2023-01-09T15:58:21.522Z,7.00
2023-01-09T16:01:12.326Z,7.00
2023-01-09T16:06:28.774Z,6.80
2023-01-09T16:10:03.569Z,6.70
2023-01-09T16:12:24.755Z,6.70
2023-01-09T16:15:16.823Z,6.60
2023-01-09T16:18:23.988Z,6.60
2023-01-09T16:24:16.546Z,6.60
2023-01-09T16:27:22.135Z,6.60
2023-01-09T16:29:51.426Z,6.60
2023-01-09T16:32:30.640Z,6.60
2023-01-09T16:35:01.679Z,6.60
2023-01-09T16:37:43.699Z,6.60
2023-01-09T16:41:04.325Z,6.70
2023-01-09T16:43:48.564Z,6.70
2023-01-09T16:46:17.829Z,6.70
2023-01-09T16:48:47.178Z,6.70
2023-01-09T16:51:17.254Z,6.70
2023-01-09T16:53:45.224Z,6.70
2023-01-09T16:56:22.456Z,6.70
2023-01-09T16:58:53.504Z,6.70
2023-01-09T17:01:21.639Z,6.70
2023-01-09T17:03:53.013Z,6.70
2023-01-09T17:06:45.291Z,6.70
2023-01-09T17:09:20.431Z,6.70
2023-01-09T17:12:16.402Z,6.70
2023-01-09T17:14:45.807Z,6.80
2023-01-09T17:17:25.361Z,6.70
2023-01-09T17:30:17.659Z,6.70
2023-01-09T17:32:53.037Z,6.70
2023-01-09T17:35:56.997Z,6.70
2023-01-09T17:38:24.971Z,6.70
2023-01-09T17:40:53.038Z,6.70
2023-01-09T17:43:21.358Z,6.70
2023-01-09T17:45:50.841Z,6.70
2023-01-09T17:48:21.089Z,6.70
2023-01-09T17:50:59.111Z,6.70
2023-01-09T18:01:14.118Z,6.70
2023-01-09T18:07:39.741Z,6.60
2023-01-09T18:15:06.110Z,6.50
2023-01-09T18:17:40.705Z,6.50
2023-01-09T18:20:32.630Z,6.50
2023-01-09T18:23:15.425Z,6.50
2023-01-09T18:30:19.432Z,6.50
2023-01-09T18:33:18.057Z,6.40
2023-01-09T18:35:55.446Z,6.50
2023-01-09T18:38:25.684Z,6.50
2023-01-09T18:40:59.650Z,6.50
2023-01-09T18:43:34.587Z,6.50
2023-01-09T18:46:19.337Z,6.50
2023-01-09T18:49:47.379Z,6.50
2023-01-09T18:56:20.106Z,6.60
2023-01-09T19:00:05.162Z,6.60
2023-01-09T19:03:44.976Z,6.60
2023-01-09T19:06:38.288Z,6.60
2023-01-09T19:16:12.323Z,6.70
2023-01-09T19:19:07.562Z,6.70
2023-01-09T19:22:26.853Z,6.70
2023-01-09T19:25:36.200Z,6.70
2023-01-09T19:28:41.008Z,6.70
2023-01-09T19:31:28.302Z,6.70
2023-01-09T19:42:05.666Z,6.70
2023-01-09T19:52:21.447Z,6.80
2023-01-09T19:55:11.333Z,6.80
2023-01-09T19:57:53.831Z,6.80
2023-01-09T20:01:10.152Z,6.80
2023-01-09T20:03:54.596Z,6.80
2023-01-09T20:07:16.918Z,6.80
2023-01-09T20:09:53.996Z,6.80
2023-01-09T20:12:27.667Z,6.80
2023-01-09T20:15:12.333Z,6.90
2023-01-09T20:18:09.271Z,6.90
2023-01-09T20:20:50.966Z,6.90
2023-01-09T20:23:52.179Z,6.90
2023-01-09T20:26:30.123Z,6.90
2023-01-09T20:29:22.519Z,7.00
2023-01-09T20:32:12.978Z,7.00
2023-01-09T20:35:23.413Z,7.00
2023-01-09T20:38:10.935Z,7.00
2023-01-09T20:51:17.605Z,7.00
2023-01-09T20:54:06.440Z,7.00
2023-01-09T20:57:00.426Z,7.10
2023-01-09T21:12:58.790Z,7.10
2023-01-09T21:15:48.560Z,7.10
2023-01-09T21:18:41.348Z,7.10
2023-01-09T21:21:25.517Z,7.20
2023-01-09T21:24:08.896Z,7.20
2023-01-09T21:26:54.640Z,7.20
2023-01-09T21:29:32.600Z,7.10
2023-01-09T21:32:02.034Z,7.20
2023-01-09T21:34:29.874Z,7.20
2023-01-09T21:36:57.859Z,7.10
2023-01-09T21:39:34.370Z,7.10
2023-01-09T21:42:24.810Z,7.10
2023-01-09T21:45:10.238Z,7.10
2023-01-09T21:47:43.165Z,7.10
2023-01-09T21:50:11.852Z,7.10
2023-01-09T21:52:39.607Z,7.10
2023-01-09T21:55:08.445Z,7.00
2023-01-09T21:57:36.304Z,7.00
2023-01-09T22:00:04.477Z,7.10
2023-01-09T22:02:32.990Z,7.10
2023-01-09T22:05:02.242Z,7.10
2023-01-09T22:07:31.365Z,7.00
2023-01-09T22:09:59.160Z,7.10
2023-01-09T22:12:26.970Z,7.00
2023-01-09T22:14:54.970Z,7.10
2023-01-09T22:17:22.834Z,7.00
2023-01-09T22:19:52.559Z,7.10
2023-01-09T22:22:21.847Z,7.10
2023-01-09T22:24:51.117Z,7.10
2023-01-09T22:27:18.991Z,7.10
2023-01-09T22:29:46.835Z,7.10
2023-01-09T22:32:14.640Z,7.10
2023-01-09T22:34:42.827Z,7.10
2023-01-09T22:37:11.961Z,7.10
2023-01-09T22:39:42.416Z,7.10
2023-01-09T22:42:10.432Z,7.10
2023-01-09T22:44:38.292Z,7.10
2023-01-09T22:47:06.949Z,7.10
2023-01-09T22:49:51.779Z,7.10
2023-01-09T22:52:21.379Z,7.10
2023-01-09T22:54:50.630Z,7.10
2023-01-09T22:57:22.108Z,7.10
2023-01-09T22:59:49.937Z,7.10
2023-01-09T23:02:17.791Z,7.10
2023-01-09T23:04:45.617Z,7.10
2023-01-09T23:07:15.647Z,7.10
2023-01-09T23:09:43.581Z,7.10
2023-01-09T23:12:12.982Z,7.10
2023-01-09T23:14:40.768Z,7.10
2023-01-09T23:17:10.682Z,7.10
2023-01-09T23:19:40.392Z,7.10
2023-01-09T23:22:08.435Z,7.10
2023-01-09T23:24:38.342Z,7.10
2023-01-09T23:27:07.433Z,7.10
2023-01-09T23:29:38.350Z,7.10
2023-01-09T23:32:07.566Z,7.10
2023-01-09T23:34:35.431Z,7.10
2023-01-09T23:37:05.886Z,7.10
2023-01-09T23:39:33.748Z,7.10
2023-01-09T23:42:19.285Z,7.10
2023-01-09T23:44:48.403Z,7.10
2023-01-09T23:47:16.258Z,7.00
2023-01-09T23:49:44.235Z,7.10
2023-01-09T23:52:12.208Z,7.00
2023-01-09T23:54:40.019Z,7.10
2023-01-09T23:57:08.029Z,7.10
2023-01-09T23:59:35.815Z,7.10
